createdAt,value
2023-05-19T00:02:21.395Z,97907.00
2023-05-19T00:05:07.333Z,97908.84
2023-05-19T00:07:58.783Z,97900.09
2023-05-19T00:10:44.768Z,97896.63
2023-05-19T00:13:30.642Z,97896.63
2023-05-19T00:16:16.498Z,97890.72
2023-05-19T00:19:03.649Z,97891.75
2023-05-19T00:21:48.903Z,97900.72
2023-05-19T00:24:34.930Z,97890.13
2023-05-19T00:27:20.859Z,97895.63
2023-05-19T00:30:07.206Z,97882.00
2023-05-19T00:32:52.883Z,97889.16
2023-05-19T00:35:38.282Z,97876.91
2023-05-19T00:38:24.143Z,97871.81
2023-05-19T00:41:09.799Z,97874.47
2023-05-19T00:43:55.807Z,97872.25
2023-05-19T00:46:41.676Z,97879.38
2023-05-19T00:49:27.214Z,97877.78
2023-05-19T00:52:13.035Z,97876.94
2023-05-19T00:54:59.585Z,97871.88
2023-05-19T00:57:47.194Z,97879.03
2023-05-19T01:00:33.125Z,97874.13
2023-05-19T01:03:20.753Z,97873.34
2023-05-19T01:06:07.327Z,97872.50
2023-05-19T01:08:55.123Z,97861.91
2023-05-19T01:11:40.845Z,97867.19
2023-05-19T01:14:27.175Z,97870.06
2023-05-19T01:17:30.740Z,97860.72
2023-05-19T01:20:34.707Z,97862.75
2023-05-19T01:23:40.156Z,97862.16
2023-05-19T01:26:45.721Z,97862.38
2023-05-19T01:30:06.874Z,97858.94
2023-05-19T01:32:59.919Z,97860.97
2023-05-19T01:35:46.384Z,97860.34
2023-05-19T01:38:34.835Z,97856.09
2023-05-19T01:41:22.269Z,97853.66
2023-05-19T01:44:10.516Z,97853.88
2023-05-19T01:46:56.612Z,97851.44
2023-05-19T01:49:42.890Z,97858.78
2023-05-19T01:52:28.272Z,97846.34
2023-05-19T01:55:14.432Z,97842.88
2023-05-19T01:58:00.070Z,97843.69
2023-05-19T02:01:11.979Z,97843.09
2023-05-19T02:04:09.395Z,97837.81
2023-05-19T02:07:05.721Z,97838.03
2023-05-19T02:10:05.369Z,97841.88
2023-05-19T02:12:53.997Z,97842.09
2023-05-19T02:15:42.386Z,97841.31
2023-05-19T02:18:30.038Z,97840.47
2023-05-19T02:21:16.197Z,97841.50
2023-05-19T02:24:02.254Z,97847.63
2023-05-19T02:26:48.492Z,97834.38
2023-05-19T02:29:34.431Z,97830.91
2023-05-19T02:32:21.149Z,97832.75
2023-05-19T02:35:07.672Z,97834.59
2023-05-19T02:37:54.155Z,97831.94
2023-05-19T02:40:40.444Z,97828.47
2023-05-19T02:43:25.861Z,97825.25
2023-05-19T02:46:11.449Z,97822.78
2023-05-19T02:48:56.978Z,97820.38
2023-05-19T02:51:42.774Z,97828.13
2023-05-19T02:54:28.302Z,97817.38
2023-05-19T02:57:13.691Z,97816.38
2023-05-19T02:59:59.244Z,97823.13
2023-05-19T03:02:44.744Z,97819.31
2023-05-19T03:05:31.284Z,97814.25
2023-05-19T03:08:17.091Z,97820.78
2023-05-19T03:11:03.470Z,97821.78
2023-05-19T03:13:49.102Z,97818.75
2023-05-19T03:16:34.621Z,97821.63
2023-05-19T03:19:20.638Z,97815.50
2023-05-19T03:22:06.788Z,97818.13
2023-05-19T03:24:54.402Z,97819.19
2023-05-19T03:27:40.342Z,97815.72
2023-05-19T03:30:26.224Z,97815.94
2023-05-19T03:33:24.062Z,97816.72
2023-05-19T03:36:12.766Z,97815.94
2023-05-19T03:38:59.087Z,97819.59
2023-05-19T03:41:44.799Z,97815.31
2023-05-19T03:44:30.580Z,97813.50
2023-05-19T03:47:18.033Z,97814.31
2023-05-19T03:50:35.534Z,97819.59
2023-05-19T03:53:32.322Z,97820.63
2023-05-19T03:56:18.284Z,97827.75
2023-05-19T03:59:06.249Z,97818.97
2023-05-19T04:01:52.862Z,97833.84
2023-05-19T04:04:39.022Z,97830.19
2023-05-19T04:07:24.573Z,97828.16
2023-05-19T04:10:10.874Z,97827.94
2023-05-19T04:12:56.984Z,97829.34
2023-05-19T04:15:44.914Z,97833.41
2023-05-19T04:18:30.224Z,97837.47
2023-05-19T04:21:15.712Z,97830.75
2023-05-19T04:24:01.284Z,97835.59
2023-05-19T04:26:47.854Z,97832.56
2023-05-19T04:29:35.712Z,97835.78
2023-05-19T04:32:22.715Z,97836.16
2023-05-19T04:35:09.488Z,97835.75
2023-05-19T04:37:55.902Z,97842.47
2023-05-19T04:40:50.151Z,97836.16
2023-05-19T04:43:36.027Z,97840.44
2023-05-19T04:46:24.541Z,97835.72
2023-05-19T04:49:15.425Z,97834.47
2023-05-19T04:52:01.688Z,97834.88
2023-05-19T04:54:49.436Z,97834.47
2023-05-19T04:57:35.270Z,97831.19
2023-05-19T05:00:21.625Z,97828.91
2023-05-19T05:03:18.879Z,97822.94
2023-05-19T05:06:04.735Z,97830.28
2023-05-19T05:08:51.334Z,97828.63
2023-05-19T05:11:37.316Z,97832.25
2023-05-19T05:14:23.297Z,97824.47
2023-05-19T05:17:09.755Z,97822.19
2023-05-19T05:19:55.372Z,97827.44
2023-05-19T05:22:42.071Z,97824.94
2023-05-19T05:25:28.518Z,97833.28
2023-05-19T05:28:14.463Z,97840.59
2023-05-19T05:31:00.792Z,97831.41
2023-05-19T05:33:46.244Z,97831.56
2023-05-19T05:36:34.995Z,97825.03
2023-05-19T05:39:20.737Z,97823.19
2023-05-19T05:42:06.250Z,97819.72
2023-05-19T05:44:52.093Z,97820.91
2023-05-19T05:47:39.835Z,97816.78
2023-05-19T05:50:26.508Z,97812.22
2023-05-19T05:53:18.772Z,97813.00
2023-05-19T05:56:06.280Z,97811.34
2023-05-19T05:59:00.464Z,97816.34
2023-05-19T06:01:46.222Z,97823.22
2023-05-19T06:04:34.450Z,97829.28
2023-05-19T06:07:20.196Z,97818.34
2023-05-19T06:10:07.519Z,97824.41
2023-05-19T06:12:53.444Z,97823.97
2023-05-19T06:15:39.977Z,97822.72
2023-05-19T06:18:48.343Z,97816.94
2023-05-19T06:21:33.713Z,97818.94
2023-05-19T06:24:19.480Z,97820.69
2023-05-19T06:27:06.197Z,97825.72
2023-05-19T06:29:51.930Z,97828.50
2023-05-19T06:32:38.523Z,97821.94
2023-05-19T06:35:25.568Z,97829.25
2023-05-19T06:38:11.029Z,97827.31
2023-05-19T06:40:57.005Z,97824.78
2023-05-19T06:43:43.161Z,97832.22
2023-05-19T06:46:32.804Z,97827.19
2023-05-19T06:49:18.039Z,97831.38
2023-05-19T06:52:05.886Z,97830.00
2023-05-19T06:54:51.997Z,97827.63
2023-05-19T06:57:37.833Z,97823.25
2023-05-19T07:00:24.393Z,97825.00
2023-05-19T07:03:11.868Z,97824.88
2023-05-19T07:05:57.950Z,97818.66
2023-05-19T07:08:44.103Z,97827.13
2023-05-19T07:11:31.242Z,97823.78
2023-05-19T07:14:17.315Z,97826.53
2023-05-19T07:17:03.385Z,97826.44
2023-05-19T07:19:48.921Z,97831.41
2023-05-19T07:22:35.311Z,97829.69
2023-05-19T07:25:21.539Z,97830.97
2023-05-19T07:28:06.994Z,97823.09
2023-05-19T07:30:53.655Z,97815.44
2023-05-19T07:33:39.496Z,97812.97
2023-05-19T07:36:24.970Z,97811.94
2023-05-19T07:39:10.739Z,97809.22
2023-05-19T07:41:56.340Z,97813.59
2023-05-19T07:44:41.647Z,97802.59
2023-05-19T07:47:27.333Z,97793.44
2023-05-19T07:50:13.130Z,97795.13
2023-05-19T07:52:58.723Z,97788.38
2023-05-19T07:55:44.105Z,97789.03
2023-05-19T07:58:29.859Z,97783.25
2023-05-19T08:01:15.596Z,97790.53
2023-05-19T08:04:01.375Z,97790.38
2023-05-19T08:06:47.049Z,97793.78
2023-05-19T08:09:32.769Z,97793.16
2023-05-19T08:12:18.492Z,97798.44
2023-05-19T08:15:05.150Z,97793.75
2023-05-19T08:17:50.396Z,97785.00
2023-05-19T08:20:36.856Z,97779.75
2023-05-19T08:23:22.393Z,97784.13
2023-05-19T08:26:08.415Z,97788.16
2023-05-19T08:28:54.229Z,97784.41
2023-05-19T08:31:40.019Z,97781.25
2023-05-19T08:34:25.785Z,97778.13
2023-05-19T08:37:12.156Z,97769.59
2023-05-19T08:39:57.482Z,97775.00
2023-05-19T08:42:43.651Z,97771.63
2023-05-19T08:45:29.993Z,97768.22
2023-05-19T08:48:17.664Z,97763.66
2023-05-19T08:51:33.888Z,97763.97
2023-05-19T08:54:21.061Z,97764.63
2023-05-19T08:57:07.962Z,97768.41
2023-05-19T08:59:54.942Z,97767.13
2023-05-19T09:02:50.560Z,97764.69
2023-05-19T09:05:47.173Z,97765.25
2023-05-19T09:08:33.259Z,97763.94
2023-05-19T09:11:19.382Z,97759.16
2023-05-19T09:14:05.338Z,97758.44
2023-05-19T09:16:52.822Z,97753.88
2023-05-19T09:19:44.013Z,97751.16
2023-05-19T09:22:30.737Z,97751.63
2023-05-19T09:25:22.253Z,97753.19
2023-05-19T09:28:09.161Z,97755.88
2023-05-19T09:31:11.419Z,97745.75
2023-05-19T09:33:57.445Z,97743.16
2023-05-19T09:36:43.187Z,97740.78
2023-05-19T09:39:29.518Z,97738.47
2023-05-19T09:42:15.109Z,97740.09
2023-05-19T09:45:02.182Z,97740.13
2023-05-19T09:47:48.468Z,97738.41
2023-05-19T09:50:34.149Z,97740.13
2023-05-19T09:53:21.495Z,97734.88
2023-05-19T09:56:09.914Z,97735.00
2023-05-19T09:58:56.501Z,97731.31
2023-05-19T10:01:46.486Z,97731.66
2023-05-19T10:04:32.256Z,97732.00
2023-05-19T10:07:19.666Z,97729.06
2023-05-19T10:10:09.381Z,97718.69
2023-05-19T10:12:55.533Z,97724.41
2023-05-19T10:15:57.178Z,97713.81
2023-05-19T10:18:44.116Z,97711.44
2023-05-19T10:21:29.662Z,97717.97
2023-05-19T10:24:16.031Z,97709.16
2023-05-19T10:27:06.166Z,97707.28
2023-05-19T10:29:52.264Z,97701.94
2023-05-19T10:32:41.379Z,97708.06
2023-05-19T10:35:33.614Z,97705.16
2023-05-19T10:38:32.383Z,97707.56
2023-05-19T10:41:21.628Z,97709.47
2023-05-19T10:44:23.501Z,97704.13
2023-05-19T10:47:12.117Z,97710.50
2023-05-19T10:50:00.769Z,97703.53
2023-05-19T10:52:53.956Z,97701.94
2023-05-19T10:56:07.693Z,97706.13
2023-05-19T10:58:53.501Z,97704.44
2023-05-19T11:01:41.738Z,97706.81
2023-05-19T11:04:50.366Z,97705.72
2023-05-19T11:07:37.057Z,97703.03
2023-05-19T11:10:25.623Z,97709.75
2023-05-19T11:13:19.600Z,97701.16
2023-05-19T11:16:09.330Z,97700.38
2023-05-19T11:19:06.407Z,97701.16
2023-05-19T11:21:55.041Z,97700.09
2023-05-19T11:24:45.269Z,97698.28
2023-05-19T11:27:32.848Z,97703.66
2023-05-19T11:30:20.211Z,97695.66
2023-05-19T11:33:06.554Z,97694.13
2023-05-19T11:35:53.895Z,97692.28
2023-05-19T11:38:39.515Z,97691.25
2023-05-19T11:41:24.906Z,97693.63
2023-05-19T11:44:12.072Z,97694.19
2023-05-19T11:46:59.233Z,97699.53
2023-05-19T11:49:48.104Z,97698.19
2023-05-19T11:52:33.976Z,97694.41
2023-05-19T11:55:23.473Z,97698.41
2023-05-19T11:58:09.304Z,97698.09
2023-05-19T12:00:55.563Z,97699.50
2023-05-19T12:03:41.224Z,97698.09
2023-05-19T12:06:27.665Z,97699.72
2023-05-19T12:09:14.449Z,97696.81
2023-05-19T12:12:00.751Z,97686.38
2023-05-19T12:14:51.995Z,97681.03
2023-05-19T12:17:37.394Z,97681.56
2023-05-19T12:20:23.598Z,97673.78
2023-05-19T12:23:11.705Z,97682.88
2023-05-19T12:25:59.170Z,97684.72
2023-05-19T12:28:46.303Z,97685.22
2023-05-19T12:31:32.867Z,97681.19
2023-05-19T12:34:19.050Z,97686.25
2023-05-19T12:37:05.857Z,97683.03
2023-05-19T12:39:51.754Z,97679.78
2023-05-19T12:42:37.921Z,97684.63
2023-05-19T12:45:25.611Z,97676.59
2023-05-19T12:48:18.145Z,97678.72
2023-05-19T12:51:05.814Z,97672.88
2023-05-19T12:53:52.446Z,97678.53
2023-05-19T12:56:38.297Z,97672.97
2023-05-19T12:59:37.411Z,97681.03
2023-05-19T13:02:24.800Z,97670.06
2023-05-19T13:05:10.323Z,97681.56
2023-05-19T13:07:56.593Z,97676.22
2023-05-19T13:10:43.960Z,97676.22
2023-05-19T13:13:29.533Z,97684.00
2023-05-19T13:16:15.190Z,97680.50
2023-05-19T13:19:01.537Z,97681.31
2023-05-19T13:21:51.167Z,97682.63
2023-05-19T13:24:37.333Z,97689.59
2023-05-19T13:27:24.800Z,97688.00
2023-05-19T13:30:10.678Z,97683.47
2023-05-19T13:32:56.252Z,97681.28
2023-05-19T13:35:41.740Z,97678.91
2023-05-19T13:38:27.201Z,97675.72
2023-05-19T13:41:13.805Z,97670.91
2023-05-19T13:44:00.916Z,97671.44
2023-05-19T13:46:48.472Z,97675.75
2023-05-19T13:49:35.551Z,97672.22
2023-05-19T13:52:21.806Z,97675.94
2023-05-19T13:55:07.741Z,97674.84
2023-05-19T13:57:53.751Z,97668.13
2023-05-19T14:00:39.828Z,97668.13
2023-05-19T14:03:26.362Z,97667.56
2023-05-19T14:06:11.820Z,97667.56
2023-05-19T14:08:57.645Z,97665.94
2023-05-19T14:11:43.454Z,97664.59
2023-05-19T14:14:29.433Z,97659.50
2023-05-19T14:17:15.116Z,97664.84
2023-05-19T14:20:00.604Z,97657.38
2023-05-19T14:22:45.904Z,97663.25
2023-05-19T14:25:32.253Z,97658.97
2023-05-19T14:28:17.833Z,97652.28
2023-05-19T14:31:04.021Z,97656.00
2023-05-19T14:33:49.524Z,97655.22
2023-05-19T14:36:35.504Z,97655.47
2023-05-19T14:39:21.072Z,97649.84
2023-05-19T14:42:06.798Z,97646.63
2023-05-19T14:44:52.382Z,97646.09
2023-05-19T14:47:38.077Z,97644.47
2023-05-19T14:50:23.696Z,97647.66
2023-05-19T14:53:09.172Z,97643.63
2023-05-19T14:55:55.068Z,97649.81
2023-05-19T14:58:41.275Z,97651.94
2023-05-19T15:01:26.710Z,97655.44
2023-05-19T15:04:12.666Z,97655.97
2023-05-19T15:09:51.281Z,97651.97
2023-05-19T15:12:36.748Z,97646.41
2023-05-19T15:15:22.437Z,97651.47
2023-05-19T15:18:08.124Z,97641.84
2023-05-19T15:20:53.630Z,97639.66
2023-05-19T15:23:39.541Z,97653.03
2023-05-19T15:26:26.375Z,97647.44
2023-05-19T15:29:13.206Z,97651.94
2023-05-19T15:31:58.636Z,97649.81
2023-05-19T15:34:44.147Z,97641.22
2023-05-19T15:37:30.270Z,97648.69
2023-05-19T15:40:15.739Z,97646.28
2023-05-19T15:43:01.785Z,97643.59
2023-05-19T15:45:48.189Z,97653.50
2023-05-19T15:48:33.683Z,97640.38
2023-05-19T15:51:19.107Z,97640.63
2023-05-19T15:54:04.475Z,97633.41
2023-05-19T15:56:50.065Z,97634.78
2023-05-19T15:59:36.098Z,97635.88
2023-05-19T16:02:21.862Z,97640.47
2023-05-19T16:05:07.519Z,97624.94
2023-05-19T16:07:53.114Z,97628.97
2023-05-19T16:10:38.722Z,97627.91
2023-05-19T16:13:24.404Z,97632.19
2023-05-19T16:16:09.895Z,97625.22
2023-05-19T16:18:55.440Z,97621.50
2023-05-19T16:21:40.822Z,97624.16
2023-05-19T16:24:26.331Z,97612.41
2023-05-19T16:27:11.916Z,97610.28
2023-05-19T16:29:57.819Z,97609.25
2023-05-19T16:32:43.836Z,97612.78
2023-05-19T16:35:29.953Z,97616.28
2023-05-19T16:38:15.609Z,97615.25
2023-05-19T16:41:01.450Z,97614.47
2023-05-19T16:43:47.385Z,97621.16
2023-05-19T16:46:32.972Z,97623.56
2023-05-19T16:49:18.353Z,97614.19
2023-05-19T16:52:04.575Z,97625.44
2023-05-19T16:54:50.468Z,97632.91
2023-05-19T16:57:36.322Z,97623.25
2023-05-19T17:00:22.049Z,97618.41
2023-05-19T17:03:07.502Z,97620.56
2023-05-19T17:05:53.358Z,97618.13
2023-05-19T17:08:39.150Z,97616.78
2023-05-19T17:11:24.679Z,97617.28
2023-05-19T17:14:10.243Z,97611.63
2023-05-19T17:16:56.020Z,97622.59
2023-05-19T17:19:41.596Z,97616.69
2023-05-19T17:22:28.776Z,97623.91
2023-05-19T17:25:15.822Z,97622.03
2023-05-19T17:28:01.626Z,97620.13
2023-05-19T17:30:47.310Z,97621.44
2023-05-19T17:33:32.622Z,97615.81
2023-05-19T17:36:18.954Z,97620.84
2023-05-19T17:39:04.662Z,97610.66
2023-05-19T17:41:49.992Z,97618.16
2023-05-19T17:44:35.490Z,97619.47
2023-05-19T17:47:21.113Z,97613.84
2023-05-19T17:50:06.992Z,97610.88
2023-05-19T17:52:52.977Z,97609.50
2023-05-19T17:55:39.089Z,97610.00
2023-05-19T17:58:25.069Z,97610.50
2023-05-19T18:01:11.256Z,97613.72
2023-05-19T18:03:57.950Z,97612.63
2023-05-19T18:06:46.183Z,97616.59
2023-05-19T18:09:33.393Z,97615.22
2023-05-19T18:12:18.937Z,97614.41
2023-05-19T18:15:04.939Z,97621.06
2023-05-19T18:17:50.471Z,97616.22
2023-05-19T18:20:38.930Z,97620.47
2023-05-19T18:23:24.483Z,97619.34
2023-05-19T18:26:13.204Z,97621.47
2023-05-19T18:29:02.675Z,97623.59
2023-05-19T18:31:48.370Z,97622.50
2023-05-19T18:34:34.254Z,97625.66
2023-05-19T18:37:19.665Z,97630.44
2023-05-19T18:40:05.925Z,97625.63
2023-05-19T18:42:51.484Z,97623.44
2023-05-19T18:45:37.328Z,97626.63
2023-05-19T18:48:24.140Z,97627.94
2023-05-19T18:51:09.791Z,97624.97
2023-05-19T18:53:55.643Z,97623.84
2023-05-19T18:56:41.888Z,97636.06
2023-05-19T18:59:27.785Z,97635.50
2023-05-19T19:02:13.336Z,97637.06
2023-05-19T19:04:58.902Z,97641.31
2023-05-19T19:07:44.806Z,97641.78
2023-05-19T19:10:33.553Z,97643.91
2023-05-19T19:13:19.273Z,97639.88
2023-05-19T19:16:04.809Z,97636.66
2023-05-19T19:18:50.774Z,97644.09
2023-05-19T19:21:36.686Z,97646.47
2023-05-19T19:24:22.451Z,97649.59
2023-05-19T19:27:08.377Z,97649.06
2023-05-19T19:29:54.174Z,97642.91
2023-05-19T19:32:39.657Z,97652.78
2023-05-19T19:35:24.874Z,97652.22
2023-05-19T19:38:10.281Z,97655.94
2023-05-19T19:40:55.779Z,97654.59
2023-05-19T19:43:41.858Z,97661.78
2023-05-19T19:46:27.212Z,97658.56
2023-05-19T19:49:12.668Z,97652.91
2023-05-19T19:51:58.850Z,97650.75
2023-05-19T19:54:45.209Z,97652.06
2023-05-19T19:57:31.758Z,97655.19
2023-05-19T20:00:18.669Z,97656.69
2023-05-19T20:03:05.891Z,97654.69
2023-05-19T20:05:52.483Z,97656.22
2023-05-19T20:08:38.037Z,97658.81
2023-05-19T20:11:24.653Z,97653.97
2023-05-19T20:14:10.037Z,97653.69
2023-05-19T20:16:55.433Z,97654.16
2023-05-19T20:19:46.095Z,97653.03
2023-05-19T20:22:32.167Z,97649.47
2023-05-19T20:25:17.888Z,97651.25
2023-05-19T20:28:03.439Z,97657.56
2023-05-19T20:30:48.632Z,97654.56
2023-05-19T20:33:34.521Z,97654.25
2023-05-19T20:36:20.261Z,97659.03
2023-05-19T20:39:07.082Z,97654.13
2023-05-19T20:41:52.477Z,97658.41
2023-05-19T20:44:39.290Z,97650.69
2023-05-19T20:47:25.422Z,97649.63
2023-05-19T20:50:11.219Z,97651.25
2023-05-19T20:52:57.122Z,97650.44
2023-05-19T20:55:45.868Z,97652.06
2023-05-19T20:58:32.084Z,97652.88
2023-05-19T21:01:17.771Z,97646.50
2023-05-19T21:04:07.883Z,97644.66
2023-05-19T21:06:53.864Z,97646.25
2023-05-19T21:09:39.325Z,97643.56
2023-05-19T21:12:28.978Z,97646.25
2023-05-19T21:15:14.739Z,97644.41
2023-05-19T21:18:00.539Z,97647.84
2023-05-19T21:20:46.376Z,97642.53
2023-05-19T21:23:31.943Z,97640.13
2023-05-19T21:26:17.972Z,97638.25
2023-05-19T21:29:03.903Z,97645.19
2023-05-19T21:31:49.234Z,97647.06
2023-05-19T21:34:34.836Z,97643.56
2023-05-19T21:37:21.605Z,97647.84
2023-05-19T21:40:08.275Z,97638.75
2023-05-19T21:42:53.836Z,97648.00
2023-05-19T21:45:39.419Z,97647.75
2023-05-19T21:48:24.859Z,97638.13
2023-05-19T21:51:10.849Z,97640.81
2023-05-19T21:53:56.238Z,97636.53
2023-05-19T21:56:41.774Z,97636.53
2023-05-19T21:59:28.057Z,97634.94
2023-05-19T22:02:13.979Z,97634.09
2023-05-19T22:04:59.484Z,97637.81
2023-05-19T22:07:46.262Z,97640.72
2023-05-19T22:10:32.247Z,97643.66
2023-05-19T22:13:19.156Z,97642.81
2023-05-19T22:16:05.264Z,97641.78
2023-05-19T22:18:51.141Z,97638.31
2023-05-19T22:21:37.114Z,97641.78
2023-05-19T22:24:22.739Z,97639.94
2023-05-19T22:27:08.727Z,97637.03
2023-05-19T22:29:54.339Z,97633.31
2023-05-19T22:32:40.202Z,97642.94
2023-05-19T22:35:25.982Z,97636.53
2023-05-19T22:38:11.970Z,97632.81
2023-05-19T22:40:57.657Z,97641.41
2023-05-19T22:43:43.506Z,97636.66
2023-05-19T22:46:29.172Z,97635.59
2023-05-19T22:49:14.918Z,97632.91
2023-05-19T22:52:00.248Z,97637.19
2023-05-19T22:54:45.919Z,97633.50
2023-05-19T22:57:31.726Z,97636.72
2023-05-19T23:00:21.024Z,97636.72
2023-05-19T23:03:06.834Z,97638.34
2023-05-19T23:05:52.324Z,97640.75
2023-05-19T23:08:37.652Z,97631.72
2023-05-19T23:11:22.946Z,97627.19
2023-05-19T23:14:08.488Z,97619.19
2023-05-19T23:16:54.286Z,97625.09
2023-05-19T23:19:39.778Z,97623.22
2023-05-19T23:22:25.487Z,97619.75
2023-05-19T23:25:11.312Z,97618.94
2023-05-19T23:27:56.703Z,97618.72
2023-05-19T23:30:42.331Z,97611.50
2023-05-19T23:33:27.912Z,97618.47
2023-05-19T23:36:13.913Z,97615.00
2023-05-19T23:39:03.195Z,97617.09
2023-05-19T23:41:49.176Z,97610.13
2023-05-19T23:44:34.594Z,97614.91
2023-05-19T23:47:20.212Z,97611.69
2023-05-19T23:50:06.063Z,97613.00
2023-05-19T23:52:51.821Z,97617.75
2023-05-19T23:55:37.364Z,97614.75
2023-05-19T23:58:23.616Z,97617.88
